createdAt,value
2018-08-24T00:01:03.986Z,56.20
2018-08-24T00:03:34.059Z,56.10
2018-08-24T00:06:04.175Z,56.40
2018-08-24T00:08:34.196Z,56.80
2018-08-24T00:11:04.213Z,56.80
2018-08-24T00:13:34.193Z,56.70
2018-08-24T00:16:04.195Z,56.80
2018-08-24T00:18:34.215Z,56.70
2018-08-24T00:21:04.226Z,56.90
2018-08-24T00:23:34.213Z,57.00
2018-08-24T00:26:04.229Z,57.30
2018-08-24T00:28:34.302Z,57.70
2018-08-24T00:31:04.333Z,57.70
2018-08-24T00:33:34.415Z,57.80
2018-08-24T00:36:04.519Z,58.30
2018-08-24T00:38:34.575Z,58.70
2018-08-24T00:41:04.668Z,59.20
2018-08-24T00:43:34.747Z,59.70
2018-08-24T00:46:04.846Z,59.60
2018-08-24T00:48:34.969Z,59.40
2018-08-24T00:51:05.058Z,59.40
2018-08-24T00:53:37.618Z,59.50
2018-08-24T00:56:09.073Z,59.20
2018-08-24T00:58:39.652Z,59.60
2018-08-24T01:01:10.352Z,59.80
2018-08-24T01:03:40.434Z,60.10
2018-08-24T01:06:10.464Z,60.40
2018-08-24T01:08:40.570Z,60.50
2018-08-24T01:11:10.631Z,60.60
2018-08-24T01:13:40.599Z,60.50
2018-08-24T01:16:14.821Z,60.90
2018-08-24T01:18:48.641Z,60.90
2018-08-24T01:21:18.774Z,60.90
2018-08-24T01:23:48.823Z,61.30
2018-08-24T01:26:24.830Z,61.60
2018-08-24T01:28:55.083Z,61.30
2018-08-24T01:31:25.209Z,61.10
2018-08-24T01:33:55.321Z,60.90
2018-08-24T01:36:25.386Z,61.80
2018-08-24T01:38:55.454Z,62.40
2018-08-24T01:41:25.498Z,62.50
2018-08-24T01:43:55.585Z,62.50
2018-08-24T01:46:25.617Z,62.70
2018-08-24T01:48:55.617Z,62.80
2018-08-24T01:51:25.694Z,63.00
2018-08-24T01:53:55.724Z,63.60
2018-08-24T01:56:26.486Z,63.80
2018-08-24T01:58:56.599Z,63.90
2018-08-24T02:01:26.700Z,63.80
2018-08-24T02:03:56.755Z,63.90
2018-08-24T02:06:26.854Z,63.90
2018-08-24T02:08:56.900Z,64.20
2018-08-24T02:11:33.218Z,64.90
2018-08-24T02:14:08.658Z,65.00
2018-08-24T02:16:39.881Z,65.00
2018-08-24T02:19:13.329Z,65.00
2018-08-24T02:21:48.444Z,65.00
2018-08-24T02:24:18.478Z,65.00
2018-08-24T02:26:48.633Z,65.00
2018-08-24T02:29:18.613Z,64.90
2018-08-24T02:31:50.529Z,64.90
2018-08-24T02:34:20.509Z,64.90
2018-08-24T02:36:50.529Z,64.90
2018-08-24T02:39:20.598Z,64.90
2018-08-24T02:41:50.722Z,64.90
2018-08-24T02:44:20.750Z,64.90
2018-08-24T02:46:50.803Z,65.70
2018-08-24T02:49:20.952Z,65.70
2018-08-24T02:51:51.046Z,65.80
2018-08-24T02:54:21.121Z,66.10
2018-08-24T02:56:51.127Z,66.30
2018-08-24T02:59:21.105Z,66.20
2018-08-24T03:01:51.202Z,66.00
2018-08-24T03:04:21.205Z,66.30
2018-08-24T03:06:51.238Z,66.10
2018-08-24T03:09:21.366Z,66.30
2018-08-24T03:11:51.433Z,66.30
2018-08-24T03:14:21.987Z,65.90
2018-08-24T03:16:57.278Z,65.80
2018-08-24T03:19:27.284Z,65.80
2018-08-24T03:21:57.304Z,65.90
2018-08-24T03:24:27.373Z,66.00
2018-08-24T03:26:57.397Z,66.20
2018-08-24T03:29:27.415Z,66.60
2018-08-24T03:31:57.455Z,66.10
2018-08-24T03:34:27.485Z,66.00
2018-08-24T03:36:57.599Z,66.10
2018-08-24T03:39:27.618Z,65.90
2018-08-24T03:41:57.605Z,65.80
2018-08-24T03:44:27.670Z,66.00
2018-08-24T03:46:57.650Z,66.70
2018-08-24T03:49:27.673Z,66.10
2018-08-24T03:51:57.705Z,66.60
2018-08-24T03:54:27.684Z,66.70
2018-08-24T03:56:58.764Z,67.00
2018-08-24T03:59:28.778Z,67.00
2018-08-24T04:01:58.887Z,67.30
2018-08-24T04:04:28.870Z,67.30
2018-08-24T04:06:58.942Z,67.40
2018-08-24T04:09:28.993Z,68.40
2018-08-24T04:11:59.130Z,68.30
2018-08-24T04:14:30.194Z,68.30
2018-08-24T04:17:05.513Z,68.60
2018-08-24T04:19:35.663Z,69.10
2018-08-24T04:22:05.739Z,69.30
2018-08-24T04:24:35.781Z,69.10
2018-08-24T04:27:05.842Z,69.30
2018-08-24T04:29:35.909Z,69.30
2018-08-24T04:32:05.921Z,68.90
2018-08-24T04:34:35.918Z,69.20
2018-08-24T04:37:06.001Z,68.80
2018-08-24T04:39:35.993Z,68.40
2018-08-24T04:42:06.261Z,68.20
2018-08-24T04:44:36.241Z,67.90
2018-08-24T04:47:06.311Z,67.50
2018-08-24T04:49:36.309Z,67.20
2018-08-24T04:52:06.313Z,66.40
2018-08-24T04:54:36.285Z,65.70
2018-08-24T04:57:06.289Z,64.80
2018-08-24T04:59:36.369Z,64.40
2018-08-24T05:02:06.647Z,62.90
2018-08-24T05:04:36.695Z,61.80
2018-08-24T05:07:06.790Z,60.70
2018-08-24T05:09:36.871Z,60.30
2018-08-24T05:12:06.932Z,60.30
2018-08-24T05:14:36.940Z,59.80
2018-08-24T05:17:06.989Z,59.30
2018-08-24T05:19:36.995Z,58.90
2018-08-24T05:22:07.186Z,58.50
2018-08-24T05:24:37.328Z,57.80
2018-08-24T05:27:07.293Z,57.10
2018-08-24T05:29:37.326Z,57.00
2018-08-24T05:32:07.381Z,56.90
2018-08-24T05:34:37.389Z,56.50
2018-08-24T05:37:07.394Z,56.70
2018-08-24T05:39:37.462Z,56.70
2018-08-24T05:42:07.689Z,56.20
2018-08-24T05:44:37.679Z,56.50
2018-08-24T05:47:07.877Z,56.50
2018-08-24T05:49:37.870Z,56.30
2018-08-24T05:52:08.062Z,56.90
2018-08-24T05:54:38.072Z,56.70
2018-08-24T05:57:08.096Z,56.60
2018-08-24T05:59:38.147Z,56.70
2018-08-24T06:02:08.304Z,56.80
2018-08-24T06:04:38.326Z,56.70
2018-08-24T06:07:08.339Z,56.60
2018-08-24T06:09:38.349Z,56.50
2018-08-24T06:12:08.550Z,56.50
2018-08-24T06:14:38.610Z,56.50
2018-08-24T06:17:14.046Z,56.50
2018-08-24T06:19:44.284Z,56.80
2018-08-24T06:22:14.323Z,57.10
2018-08-24T06:24:44.417Z,57.20
2018-08-24T06:27:14.380Z,57.00
2018-08-24T06:29:44.332Z,57.80
2018-08-24T06:32:14.394Z,56.60
2018-08-24T06:34:44.491Z,56.80
2018-08-24T06:37:14.550Z,56.70
2018-08-24T06:39:44.530Z,56.70
2018-08-24T06:42:14.720Z,56.70
2018-08-24T06:44:44.827Z,56.80
2018-08-24T06:47:14.852Z,56.80
2018-08-24T06:49:44.948Z,56.70
2018-08-24T06:52:14.957Z,56.70
2018-08-24T06:54:45.088Z,56.70
2018-08-24T06:57:15.237Z,56.80
2018-08-24T06:59:46.204Z,56.10
2018-08-24T07:02:16.314Z,55.80
2018-08-24T07:04:46.338Z,55.70
2018-08-24T07:07:16.360Z,55.10
2018-08-24T07:09:46.413Z,55.00
2018-08-24T07:12:16.535Z,54.30
2018-08-24T07:14:46.601Z,54.20
2018-08-24T07:17:20.917Z,53.80
2018-08-24T07:19:51.331Z,53.30
2018-08-24T07:22:21.516Z,53.00
2018-08-24T07:24:51.902Z,52.60
2018-08-24T07:27:21.968Z,52.70
2018-08-24T07:29:52.048Z,52.40
2018-08-24T07:32:22.229Z,51.80
2018-08-24T07:34:52.255Z,51.40
2018-08-24T07:37:22.350Z,51.50
2018-08-24T07:39:52.437Z,51.40
2018-08-24T07:42:22.941Z,51.00
2018-08-24T07:44:54.909Z,51.00
2018-08-24T07:47:25.191Z,51.00
2018-08-24T07:49:55.576Z,51.00
2018-08-24T07:52:25.768Z,51.00
2018-08-24T07:54:55.865Z,51.10
2018-08-24T07:57:25.935Z,51.20
2018-08-24T07:59:55.980Z,51.40
2018-08-24T08:02:32.116Z,51.20
2018-08-24T08:05:02.158Z,50.90
2018-08-24T08:07:32.179Z,50.50
2018-08-24T08:10:02.311Z,50.20
2018-08-24T08:12:32.424Z,50.20
2018-08-24T08:15:11.191Z,49.90
2018-08-24T08:17:41.593Z,50.20
2018-08-24T08:20:11.709Z,50.60
2018-08-24T08:22:41.788Z,50.40
2018-08-24T08:25:11.953Z,50.40
2018-08-24T08:27:42.041Z,50.60
2018-08-24T08:30:12.214Z,50.40
2018-08-24T08:32:42.374Z,51.50
2018-08-24T08:35:12.429Z,52.40
2018-08-24T08:37:42.388Z,54.20
2018-08-24T08:40:12.442Z,56.20
2018-08-24T08:42:42.556Z,58.50
2018-08-24T08:45:14.109Z,60.70
2018-08-24T08:47:44.333Z,61.00
2018-08-24T08:50:15.338Z,61.70
2018-08-24T08:52:45.291Z,62.90
2018-08-24T08:55:15.464Z,62.80
2018-08-24T08:57:46.178Z,70.10
2018-08-24T09:00:17.086Z,64.20
2018-08-24T09:02:47.121Z,62.30
2018-08-24T09:05:17.164Z,62.80
2018-08-24T09:07:47.286Z,62.30
2018-08-24T09:10:17.420Z,60.80
2018-08-24T09:12:47.523Z,59.20
2018-08-24T09:15:17.600Z,59.90
2018-08-24T09:19:55.836Z,59.00
2018-08-24T09:22:31.176Z,57.70
2018-08-24T09:25:06.579Z,55.30
2018-08-24T09:27:45.625Z,55.80
2018-08-24T09:30:15.617Z,54.40
2018-08-24T09:32:45.640Z,52.60
2018-08-24T09:35:15.871Z,50.60
2018-08-24T09:37:45.878Z,51.70
2018-08-24T09:40:16.041Z,50.20
2018-08-24T09:42:46.073Z,51.00
2018-08-24T09:45:16.136Z,48.80
2018-08-24T09:47:51.443Z,49.70
2018-08-24T09:50:27.869Z,48.70
2018-08-24T09:53:02.997Z,47.20
2018-08-24T09:55:38.160Z,46.10
2018-08-24T09:58:08.863Z,46.60
2018-08-24T10:00:44.310Z,47.60
2018-08-24T10:03:19.624Z,47.90
2018-08-24T10:05:55.581Z,47.80
2018-08-24T10:08:34.825Z,49.10
2018-08-24T10:11:04.850Z,48.00
2018-08-24T10:13:35.554Z,49.00
2018-08-24T10:16:05.618Z,47.80
2018-08-24T10:18:35.686Z,47.10
2018-08-24T10:21:05.714Z,46.50
2018-08-24T10:23:35.814Z,46.40
2018-08-24T10:26:05.792Z,46.80
2018-08-24T10:28:35.762Z,46.30
2018-08-24T10:31:05.793Z,45.70
2018-08-24T10:33:35.793Z,45.80
2018-08-24T10:36:05.844Z,45.40
2018-08-24T10:38:35.854Z,45.60
2018-08-24T10:41:05.862Z,46.00
2018-08-24T10:43:35.865Z,45.90
2018-08-24T10:46:06.039Z,45.50
2018-08-24T10:48:36.128Z,45.80
2018-08-24T10:51:06.396Z,49.30
2018-08-24T10:53:36.479Z,52.40
2018-08-24T10:56:06.768Z,55.70
2018-08-24T10:58:37.038Z,57.00
2018-08-24T11:01:07.192Z,57.20
2018-08-24T11:03:37.342Z,57.20
2018-08-24T11:06:07.480Z,57.10
2018-08-24T11:08:37.479Z,57.90
2018-08-24T11:11:07.733Z,57.00
2018-08-24T11:13:37.697Z,56.90
2018-08-24T11:16:07.843Z,54.80
2018-08-24T11:18:37.828Z,54.50
2018-08-24T11:21:07.931Z,53.20
2018-08-24T11:23:37.906Z,52.10
2018-08-24T11:26:07.990Z,51.50
2018-08-24T11:28:38.015Z,51.10
2018-08-24T11:31:08.173Z,50.00
2018-08-24T11:33:38.258Z,49.90
2018-08-24T11:36:08.593Z,49.20
2018-08-24T11:38:38.479Z,47.30
2018-08-24T11:41:08.541Z,47.00
2018-08-24T11:43:38.505Z,45.40
2018-08-24T11:46:08.511Z,45.10
2018-08-24T11:48:38.521Z,44.50
2018-08-24T11:51:08.506Z,45.10
2018-08-24T11:53:38.514Z,44.80
2018-08-24T11:56:08.465Z,45.50
2018-08-24T11:58:38.465Z,43.30
2018-08-24T12:01:08.491Z,42.50
2018-08-24T12:03:38.496Z,41.70
2018-08-24T12:06:08.552Z,41.70
2018-08-24T12:08:38.495Z,41.50
2018-08-24T12:11:08.521Z,41.00
2018-08-24T12:13:38.547Z,41.00
2018-08-24T12:16:08.606Z,41.10
2018-08-24T12:18:38.560Z,40.70
2018-08-24T12:21:08.594Z,41.30
2018-08-24T12:23:38.518Z,41.20
2018-08-24T12:26:08.546Z,41.50
2018-08-24T12:28:38.594Z,40.90
2018-08-24T12:31:08.569Z,41.10
2018-08-24T12:33:38.520Z,40.80
2018-08-24T12:36:13.898Z,40.90
2018-08-24T12:38:44.343Z,40.30
2018-08-24T12:41:14.433Z,39.50
2018-08-24T12:43:44.734Z,38.70
2018-08-24T12:46:14.748Z,35.50
2018-08-24T12:48:44.808Z,35.30
2018-08-24T12:51:14.851Z,34.40
2018-08-24T12:53:44.812Z,35.30
2018-08-24T12:56:21.201Z,35.40
2018-08-24T12:58:51.986Z,34.70
2018-08-24T13:01:22.056Z,34.60
2018-08-24T13:03:52.077Z,35.60
2018-08-24T13:06:22.117Z,34.80
2018-08-24T13:08:52.076Z,34.00
2018-08-24T13:11:23.119Z,33.90
2018-08-24T13:13:53.183Z,33.60
2018-08-24T13:16:23.277Z,34.00
2018-08-24T13:18:53.208Z,34.50
2018-08-24T13:21:23.248Z,33.80
2018-08-24T13:23:53.226Z,33.60
2018-08-24T13:26:23.178Z,33.60
2018-08-24T13:28:53.260Z,33.90
2018-08-24T13:31:23.254Z,33.60
2018-08-24T13:33:53.305Z,33.50
2018-08-24T13:36:23.245Z,33.60
2018-08-24T13:38:53.230Z,34.00
2018-08-24T13:41:23.296Z,34.30
2018-08-24T13:43:53.321Z,34.30
2018-08-24T13:46:23.502Z,34.60
2018-08-24T13:48:53.558Z,35.20
2018-08-24T13:51:23.781Z,35.30
2018-08-24T13:53:53.812Z,35.30
2018-08-24T13:56:23.857Z,35.80
2018-08-24T13:58:53.962Z,35.70
2018-08-24T14:01:23.941Z,35.40
2018-08-24T14:03:54.702Z,35.40
2018-08-24T14:06:24.709Z,35.60
2018-08-24T14:08:54.806Z,35.70
2018-08-24T14:11:24.801Z,36.10
2018-08-24T14:13:54.877Z,36.40
2018-08-24T14:16:24.861Z,37.00
2018-08-24T14:18:54.984Z,37.20
2018-08-24T14:21:25.006Z,37.00
2018-08-24T14:23:55.074Z,37.00
2018-08-24T14:26:25.211Z,36.60
2018-08-24T14:28:55.460Z,36.20
2018-08-24T14:31:25.702Z,35.80
2018-08-24T14:33:55.676Z,35.90
2018-08-24T14:36:25.772Z,36.10
2018-08-24T14:38:55.785Z,35.70
2018-08-24T14:41:25.781Z,34.60
2018-08-24T14:43:55.785Z,34.60
2018-08-24T14:46:25.849Z,34.50
2018-08-24T14:48:55.964Z,34.60
2018-08-24T14:51:26.014Z,34.80
2018-08-24T14:53:56.022Z,34.60
2018-08-24T14:56:26.025Z,34.60
2018-08-24T14:58:56.037Z,33.40
2018-08-24T15:01:26.000Z,32.60
2018-08-24T15:03:56.215Z,31.90
2018-08-24T15:06:26.235Z,31.70
2018-08-24T15:08:56.219Z,31.60
2018-08-24T15:11:26.247Z,32.20
2018-08-24T15:13:56.322Z,33.30
2018-08-24T15:16:26.467Z,32.80
2018-08-24T15:18:56.469Z,33.30
2018-08-24T15:21:26.518Z,32.70
2018-08-24T15:23:56.565Z,32.70
2018-08-24T15:26:26.647Z,32.00
2018-08-24T15:28:56.672Z,31.50
2018-08-24T15:31:26.752Z,31.50
2018-08-24T15:33:56.908Z,30.90
2018-08-24T15:36:26.931Z,31.00
2018-08-24T15:38:56.944Z,31.10
2018-08-24T15:41:26.948Z,31.00
2018-08-24T15:44:03.850Z,31.20
2018-08-24T15:46:34.718Z,31.40
2018-08-24T15:49:05.398Z,31.10
2018-08-24T15:51:35.470Z,32.20
2018-08-24T15:54:05.734Z,31.90
2018-08-24T15:56:35.938Z,31.70
2018-08-24T15:59:06.021Z,32.10
2018-08-24T16:01:36.109Z,31.70
2018-08-24T16:04:06.229Z,32.10
2018-08-24T16:06:36.251Z,32.80
2018-08-24T16:09:09.093Z,33.10
2018-08-24T16:11:39.449Z,33.30
2018-08-24T16:14:09.918Z,33.60
2018-08-24T16:16:40.007Z,34.00
2018-08-24T16:19:09.947Z,34.10
2018-08-24T16:21:39.949Z,34.40
2018-08-24T16:24:10.150Z,34.10
2018-08-24T16:26:40.216Z,34.20
2018-08-24T16:29:10.189Z,33.60
2018-08-24T16:31:40.217Z,34.20
2018-08-24T16:34:10.277Z,34.40
2018-08-24T16:36:40.324Z,34.40
2018-08-24T16:39:10.895Z,35.00
2018-08-24T16:41:40.959Z,34.80
2018-08-24T16:44:10.955Z,35.40
2018-08-24T16:46:41.122Z,35.80
2018-08-24T16:49:11.218Z,35.80
2018-08-24T16:51:41.199Z,35.90
2018-08-24T16:54:11.227Z,36.30
2018-08-24T16:56:41.251Z,36.60
2018-08-24T16:59:11.448Z,36.40
2018-08-24T17:01:41.609Z,36.60
2018-08-24T17:04:11.669Z,36.40
2018-08-24T17:06:41.774Z,36.70
2018-08-24T17:09:13.142Z,36.90
2018-08-24T17:11:43.323Z,37.20
2018-08-24T17:14:13.531Z,37.20
2018-08-24T17:16:43.562Z,37.20
2018-08-24T17:19:13.604Z,37.20
2018-08-24T17:21:43.741Z,36.60
2018-08-24T17:24:13.790Z,36.40
2018-08-24T17:26:43.844Z,35.80
2018-08-24T17:29:14.173Z,35.20
2018-08-24T17:31:44.189Z,35.70
2018-08-24T17:34:14.248Z,35.70
2018-08-24T17:36:44.220Z,35.90
2018-08-24T17:39:14.256Z,36.50
2018-08-24T17:41:44.303Z,36.90
2018-08-24T17:44:14.391Z,36.10
2018-08-24T17:46:44.385Z,36.30
2018-08-24T17:49:15.088Z,36.00
2018-08-24T17:51:45.262Z,35.80
2018-08-24T17:54:15.539Z,35.60
2018-08-24T17:56:51.795Z,35.80
2018-08-24T17:59:22.082Z,35.50
2018-08-24T18:01:52.169Z,34.60
2018-08-24T18:04:22.487Z,35.00
2018-08-24T18:06:52.769Z,33.80
2018-08-24T18:09:22.720Z,34.20
2018-08-24T18:11:53.374Z,33.70
2018-08-24T18:14:23.370Z,33.90
2018-08-24T18:16:53.396Z,34.00
2018-08-24T18:19:23.445Z,34.10
2018-08-24T18:21:53.573Z,34.00
2018-08-24T18:24:23.600Z,34.10
2018-08-24T18:26:53.686Z,34.10
2018-08-24T18:29:23.812Z,34.40
2018-08-24T18:31:53.931Z,34.60
2018-08-24T18:34:23.963Z,34.80
2018-08-24T18:36:54.009Z,34.90
2018-08-24T18:39:24.042Z,35.30
2018-08-24T18:41:54.157Z,36.00
2018-08-24T18:44:24.658Z,35.90
2018-08-24T18:46:54.691Z,35.80
2018-08-24T18:49:24.880Z,35.80
2018-08-24T18:51:54.923Z,35.70
2018-08-24T18:54:24.959Z,35.90
2018-08-24T18:56:55.038Z,36.00
2018-08-24T18:59:25.257Z,36.40
2018-08-24T19:01:55.393Z,36.80
2018-08-24T19:04:25.393Z,36.80
2018-08-24T19:06:55.654Z,37.00
2018-08-24T19:09:25.733Z,36.90
2018-08-24T19:12:01.331Z,37.20
2018-08-24T19:14:31.411Z,37.20
2018-08-24T19:17:01.412Z,37.50
2018-08-24T19:19:36.664Z,37.80
2018-08-24T19:22:06.777Z,37.90
2018-08-24T19:24:37.018Z,38.10
2018-08-24T19:27:07.806Z,38.00
2018-08-24T19:29:43.203Z,38.40
2018-08-24T19:32:13.251Z,38.80
2018-08-24T19:34:43.348Z,38.50
2018-08-24T19:37:13.356Z,38.50
2018-08-24T19:39:47.681Z,38.60
2018-08-24T19:42:24.360Z,39.30
2018-08-24T19:44:54.867Z,39.30
2018-08-24T19:47:30.604Z,39.10
2018-08-24T19:50:00.717Z,39.60
2018-08-24T19:52:30.894Z,39.80
2018-08-24T19:55:01.030Z,40.20
2018-08-24T19:57:36.453Z,39.40
2018-08-24T20:00:06.629Z,39.80
2018-08-24T20:02:36.666Z,39.70
2018-08-24T20:05:06.677Z,40.20
2018-08-24T20:07:41.930Z,40.30
2018-08-24T20:10:16.304Z,40.70
2018-08-24T20:12:47.525Z,40.10
2018-08-24T20:15:22.945Z,40.10
2018-08-24T20:17:52.952Z,40.90
2018-08-24T20:20:23.072Z,40.20
2018-08-24T20:22:53.132Z,40.10
2018-08-24T20:25:23.101Z,40.40
2018-08-24T20:27:53.826Z,40.00
2018-08-24T20:30:23.950Z,40.00
2018-08-24T20:32:54.005Z,40.70
2018-08-24T20:35:24.191Z,40.60
2018-08-24T20:37:54.177Z,41.00
2018-08-24T20:40:24.321Z,41.00
2018-08-24T20:42:54.462Z,40.60
2018-08-24T20:45:24.477Z,40.50
2018-08-24T20:47:54.606Z,40.30
2018-08-24T20:50:25.223Z,40.90
2018-08-24T20:52:55.383Z,41.20
2018-08-24T20:55:25.507Z,41.20
2018-08-24T20:57:55.575Z,41.30
2018-08-24T21:00:25.629Z,41.00
2018-08-24T21:02:55.717Z,41.10
2018-08-24T21:05:25.730Z,41.40
2018-08-24T21:07:55.859Z,41.40
2018-08-24T21:10:25.988Z,41.60
2018-08-24T21:12:55.942Z,41.80
2018-08-24T21:15:26.022Z,42.00
2018-08-24T21:17:56.069Z,42.20
2018-08-24T21:20:26.150Z,42.30
2018-08-24T21:22:56.246Z,42.30
2018-08-24T21:25:26.393Z,42.20
2018-08-24T21:27:56.396Z,42.50
2018-08-24T21:30:26.381Z,42.70
2018-08-24T21:32:56.449Z,42.60
2018-08-24T21:35:26.441Z,42.60
2018-08-24T21:37:56.568Z,42.60
2018-08-24T21:40:26.619Z,42.60
2018-08-24T21:42:56.677Z,42.90
2018-08-24T21:45:26.686Z,42.80
2018-08-24T21:47:56.703Z,43.00
2018-08-24T21:50:26.759Z,43.00
2018-08-24T21:52:56.897Z,42.80
2018-08-24T21:55:27.646Z,43.00
2018-08-24T21:57:57.650Z,43.00
2018-08-24T22:00:27.728Z,44.20
2018-08-24T22:02:57.711Z,44.10
2018-08-24T22:05:27.909Z,44.20
2018-08-24T22:07:57.957Z,44.10
2018-08-24T22:10:27.953Z,44.10
2018-08-24T22:12:58.001Z,43.70
2018-08-24T22:15:28.054Z,43.80
2018-08-24T22:17:58.065Z,44.10
2018-08-24T22:20:28.023Z,44.00
2018-08-24T22:22:58.057Z,44.10
2018-08-24T22:25:28.050Z,43.90
2018-08-24T22:27:58.103Z,43.90
2018-08-24T22:30:28.153Z,43.90
2018-08-24T22:32:58.198Z,44.00
2018-08-24T22:35:28.206Z,43.90
2018-08-24T22:37:58.188Z,44.00
2018-08-24T22:40:28.187Z,44.10
2018-08-24T22:42:58.189Z,43.90
2018-08-24T22:45:28.263Z,43.90
2018-08-24T22:47:58.773Z,43.90
2018-08-24T22:50:28.753Z,43.90
2018-08-24T22:52:58.862Z,43.90
2018-08-24T22:55:28.885Z,43.90
2018-08-24T22:57:58.979Z,43.90
2018-08-24T23:00:28.999Z,43.80
2018-08-24T23:02:59.042Z,44.30
2018-08-24T23:05:29.041Z,43.80
2018-08-24T23:07:59.008Z,44.70
2018-08-24T23:10:29.056Z,43.80
2018-08-24T23:12:59.191Z,43.80
2018-08-24T23:15:29.282Z,44.20
2018-08-24T23:17:59.330Z,43.80
2018-08-24T23:20:29.330Z,43.70
2018-08-24T23:23:00.349Z,44.70
2018-08-24T23:25:30.527Z,43.70
2018-08-24T23:28:00.693Z,43.70
2018-08-24T23:30:30.725Z,43.70
2018-08-24T23:33:00.782Z,43.70
2018-08-24T23:35:30.853Z,44.40
2018-08-24T23:38:00.816Z,45.10
2018-08-24T23:40:30.902Z,44.20
2018-08-24T23:43:00.884Z,44.10
2018-08-24T23:45:30.897Z,43.50
2018-08-24T23:48:00.876Z,43.60
2018-08-24T23:50:30.901Z,43.50
2018-08-24T23:53:00.998Z,45.00
2018-08-24T23:55:31.024Z,44.20
2018-08-24T23:58:01.130Z,44.00
